Time;durP1;ratioP1;P1;durP2;ratioP2;P2;SDS_P1;SDS_P2;PMS_P1;PMS_P2;Temp;Humidity;BMP_temperature;BMP_pressure;BME280_temperature;BME280_humidity;BME280_pressure;Samples;Min_cycle;Max_cycle;Signal;HPM_P1;HPM_P2
2023/11/02 00:02:01;;;;;;;2.67;1.00;;;;;;;11.76;48.00;98969.59;5041862;28;20049;-83
2023/11/02 00:04:31;;;;;;;2.38;1.00;;;;;;;11.74;47.71;98972.50;5040080;28;20060;-83
2023/11/02 00:06:59;;;;;;;2.25;1.00;;;;;;;11.72;48.30;98947.19;5034426;28;20057;-84
2023/11/02 00:09:36;;;;;;;2.08;1.02;;;;;;;11.73;47.87;98944.25;5024702;28;20049;-83
2023/11/02 00:12:07;;;;;;;4.35;1.02;;;;;;;11.70;47.86;98941.91;5026228;28;20067;-83
2023/11/02 00:14:43;;;;;;;2.28;0.98;;;;;;;11.70;48.01;98950.13;5027282;28;20316;-83
2023/11/02 00:17:56;;;;;;;2.70;0.80;;;;;;;11.69;48.27;98937.47;5042096;28;20095;-82
2023/11/02 00:20:38;;;;;;;1.97;0.83;;;;;;;11.66;48.30;98926.88;5047590;28;20067;-83
2023/11/02 00:23:07;;;;;;;2.75;0.90;;;;;;;11.66;48.08;98926.00;5037552;28;20063;-83
2023/11/02 00:25:53;;;;;;;3.28;1.00;;;;;;;11.70;48.46;98913.66;5026590;28;20525;-83
2023/11/02 00:28:22;;;;;;;2.30;0.85;;;;;;;11.65;48.66;98913.34;5028067;28;20055;-83
2023/11/02 00:30:50;;;;;;;3.00;0.88;;;;;;;11.66;48.00;98899.47;5026698;28;20053;-83
2023/11/02 00:33:21;;;;;;;3.10;0.80;;;;;;;11.68;48.14;98891.06;5028493;28;20139;-83
2023/11/02 00:35:52;;;;;;;2.30;1.00;;;;;;;11.64;48.33;98885.09;5029367;28;20497;-83
2023/11/02 00:38:22;;;;;;;2.20;0.80;;;;;;;11.64;48.07;98876.88;5030208;28;20854;-83
2023/11/02 00:40:51;;;;;;;2.33;0.90;;;;;;;11.66;47.99;98879.44;5030134;28;20146;-83
2023/11/02 00:43:21;;;;;;;1.83;0.88;;;;;;;11.63;48.30;98864.25;5028930;28;20045;-82
2023/11/02 00:45:50;;;;;;;2.72;1.27;;;;;;;11.65;48.21;98858.53;5029025;28;20057;-84
2023/11/02 00:48:19;;;;;;;1.88;0.77;;;;;;;11.66;48.14;98846.56;5028550;28;20528;-84
2023/11/02 00:51:19;;;;;;;2.28;0.88;;;;;;;11.67;48.25;98851.84;5028266;28;20828;-83
2023/11/02 00:53:53;;;;;;;3.58;1.10;;;;;;;11.62;48.28;98826.91;5040414;28;20053;-83
2023/11/02 00:56:21;;;;;;;2.97;1.17;;;;;;;11.65;48.33;98828.41;5030930;28;20045;-84
2023/11/02 00:58:51;;;;;;;2.08;0.80;;;;;;;11.63;48.25;98820.41;5030180;28;20048;-83
2023/11/02 01:01:21;;;;;;;1.63;0.90;;;;;;;11.66;48.26;98810.94;5029936;28;20045;-83
2023/11/02 01:03:55;;;;;;;1.23;0.80;;;;;;;11.68;47.88;98806.13;5029695;28;20056;-84
2023/11/02 01:06:28;;;;;;;2.60;0.73;;;;;;;11.67;47.99;98804.41;5028272;28;20045;-83
2023/11/02 01:08:59;;;;;;;1.50;0.90;;;;;;;11.65;48.43;98787.31;5032646;28;20077;-81
2023/11/02 01:11:38;;;;;;;2.42;0.90;;;;;;;11.69;47.98;98792.22;5044593;28;20467;-84
2023/11/02 01:14:45;;;;;;;3.53;0.93;;;;;;;11.64;48.38;98770.03;5036807;28;20048;-84
2023/11/02 01:17:31;;;;;;;2.13;0.77;;;;;;;11.66;48.20;98758.88;5028391;28;20598;-83
2023/11/02 01:20:09;;;;;;;4.03;1.08;;;;;;;11.68;47.66;98751.31;5046301;28;20049;-82
2023/11/02 01:22:59;;;;;;;1.60;0.80;;;;;;;11.65;47.75;98727.03;5028162;28;20057;-84
2023/11/02 01:25:30;;;;;;;3.80;0.80;;;;;;;11.67;48.32;98745.00;5029851;28;20056;-84
2023/11/02 01:28:01;;;;;;;1.80;0.95;;;;;;;11.68;47.96;98729.41;5051240;28;20057;-82
2023/11/02 01:31:08;;;;;;;2.22;1.10;;;;;;;11.65;47.86;98733.34;5029786;28;20111;-82
2023/11/02 01:34:05;;;;;;;2.75;0.90;;;;;;;11.61;48.08;98715.63;5026862;28;20052;-83
2023/11/02 01:36:35;;;;;;;2.22;0.90;;;;;;;11.67;48.22;98711.25;5025237;28;20053;-82
2023/11/02 01:39:29;;;;;;;2.55;1.10;;;;;;;11.70;48.03;98699.91;5035113;28;20056;-83
2023/11/02 01:42:08;;;;;;;2.58;0.82;;;;;;;11.68;47.58;98691.03;5026385;28;20053;-82
2023/11/02 01:44:42;;;;;;;3.88;1.20;;;;;;;11.66;47.87;98687.63;5026945;28;20049;-82
2023/11/02 01:47:21;;;;;;;1.90;0.80;;;;;;;11.67;47.79;98687.44;5026848;28;20068;-83
2023/11/02 01:49:56;;;;;;;2.65;0.85;;;;;;;11.67;47.78;98675.63;5044214;28;20045;-84
2023/11/02 01:52:40;;;;;;;2.08;0.80;;;;;;;11.69;47.80;98668.06;5027180;28;20766;-83
2023/11/02 01:55:22;;;;;;;2.25;0.80;;;;;;;11.67;48.02;98665.53;5037916;28;20070;-82
2023/11/02 01:58:03;;;;;;;3.05;0.90;;;;;;;11.66;48.06;98654.75;5050736;28;20064;-81
2023/11/02 02:00:43;;;;;;;2.83;0.77;;;;;;;11.69;47.86;98637.94;5044290;28;20053;-83
2023/11/02 02:03:17;;;;;;;1.17;0.60;;;;;;;11.70;47.86;98636.91;5031032;28;20056;-84
2023/11/02 02:05:51;;;;;;;1.70;0.70;;;;;;;11.71;47.85;98627.63;5027905;28;20053;-82
2023/11/02 02:08:27;;;;;;;1.75;0.60;;;;;;;11.67;47.46;98621.69;5027795;28;20130;-82
2023/11/02 02:11:05;;;;;;;1.90;1.00;;;;;;;11.70;47.68;98620.44;5030389;28;20167;-84
2023/11/02 02:13:45;;;;;;;3.35;0.80;;;;;;;11.69;47.53;98605.06;5029812;28;20524;-83
2023/11/02 02:16:24;;;;;;;1.70;0.70;;;;;;;11.70;47.67;98587.56;5035075;28;20053;-82
2023/11/02 02:18:55;;;;;;;1.92;0.80;;;;;;;11.68;47.89;98578.69;5036805;28;20048;-83
2023/11/02 02:21:30;;;;;;;1.42;0.70;;;;;;;11.68;47.87;98576.81;5029874;28;20069;-81
2023/11/02 02:24:04;;;;;;;2.03;1.02;;;;;;;11.69;47.67;98544.78;5042081;28;20198;-84
2023/11/02 02:27:05;;;;;;;1.67;0.77;;;;;;;11.67;47.17;98544.13;5042193;28;20104;-84
2023/11/02 02:30:00;;;;;;;2.72;0.98;;;;;;;11.66;47.75;98528.72;5035256;28;20048;-82
2023/11/02 02:33:01;;;;;;;2.47;1.08;;;;;;;11.66;47.32;98520.50;5043350;28;20421;-83
2023/11/02 02:35:37;;;;;;;2.75;0.82;;;;;;;11.68;47.77;98518.41;5027231;28;20053;-82
2023/11/02 02:38:07;;;;;;;2.70;1.10;;;;;;;11.64;47.61;98512.47;5040039;28;20077;-81
2023/11/02 02:40:45;;;;;;;2.35;1.10;;;;;;;11.69;47.23;98515.47;5022443;28;20566;-81
2023/11/02 02:43:14;;;;;;;3.65;0.90;;;;;;;11.65;47.56;98514.16;5022746;28;20059;-82
2023/11/02 02:45:44;;;;;;;1.98;0.90;;;;;;;11.66;47.96;98515.03;5028094;28;20519;-82
2023/11/02 02:48:14;;;;;;;2.42;1.15;;;;;;;11.65;47.53;98492.25;5024937;28;20531;-82
2023/11/02 02:50:45;;;;;;;2.00;0.90;;;;;;;11.69;47.68;98484.50;5022961;28;20045;-82
2023/11/02 02:53:16;;;;;;;2.20;0.93;;;;;;;11.66;47.99;98463.81;5028273;28;20067;-83
2023/11/02 02:55:46;;;;;;;2.15;1.35;;;;;;;11.65;47.41;98440.19;5024251;28;20067;-82
2023/11/02 02:58:16;;;;;;;2.22;1.05;;;;;;;11.65;47.59;98434.72;5028365;28;20103;-83
2023/11/02 03:00:44;;;;;;;2.13;0.93;;;;;;;11.64;47.69;98435.75;5029832;28;20052;-83
2023/11/02 03:03:18;;;;;;;1.77;0.90;;;;;;;11.65;47.86;98442.09;5030727;28;20075;-84
2023/11/02 03:05:48;;;;;;;3.10;1.10;;;;;;;11.62;47.92;98445.25;5037762;28;20041;-83
2023/11/02 03:08:16;;;;;;;5.15;1.20;;;;;;;11.63;47.79;98411.34;5052734;28;20401;-82
2023/11/02 03:10:46;;;;;;;1.90;1.10;;;;;;;11.62;47.88;98396.78;5033835;28;20059;-83
2023/11/02 03:13:17;;;;;;;2.50;1.13;;;;;;;11.62;47.48;98387.72;5032062;28;20091;-84
2023/11/02 03:15:52;;;;;;;2.78;1.00;;;;;;;11.64;47.43;98388.34;5027199;28;20048;-83
2023/11/02 03:18:30;;;;;;;1.35;0.85;;;;;;;11.60;47.69;98352.28;5028812;28;20060;-83
2023/11/02 03:21:00;;;;;;;2.28;1.17;;;;;;;11.61;47.95;98364.94;5028896;28;20049;-84
2023/11/02 03:23:36;;;;;;;3.15;1.13;;;;;;;11.62;47.61;98358.44;5028027;28;20044;-84
2023/11/02 03:26:16;;;;;;;3.30;1.10;;;;;;;11.60;47.62;98346.78;5028279;28;20048;-83
2023/11/02 03:28:52;;;;;;;2.00;1.02;;;;;;;11.60;47.80;98330.34;5032771;28;20052;-83
2023/11/02 03:31:35;;;;;;;2.38;1.20;;;;;;;11.59;47.40;98309.47;5033569;28;20048;-84
2023/11/02 03:34:09;;;;;;;2.03;1.10;;;;;;;11.55;48.03;98310.09;5040968;28;20102;-84
2023/11/02 03:36:57;;;;;;;3.97;1.20;;;;;;;11.56;47.62;98277.00;5051191;28;20055;-81
2023/11/02 03:39:38;;;;;;;2.83;1.00;;;;;;;11.58;47.78;98280.41;5036707;28;20110;-83
2023/11/02 03:42:13;;;;;;;2.70;1.20;;;;;;;11.56;47.79;98276.16;5030990;28;20057;-83
2023/11/02 03:44:53;;;;;;;2.13;1.10;;;;;;;11.55;47.57;98234.25;5034799;28;20037;-84
2023/11/02 03:47:45;;;;;;;4.20;1.15;;;;;;;11.54;47.23;98238.03;5028725;28;20059;-83
2023/11/02 03:50:23;;;;;;;1.38;1.05;;;;;;;11.57;47.51;98239.50;5018234;28;20049;-83
2023/11/02 03:53:04;;;;;;;1.88;0.95;;;;;;;11.57;47.41;98212.97;5035122;28;20459;-83
2023/11/02 03:55:45;;;;;;;3.25;1.00;;;;;;;11.56;47.74;98197.56;5023833;28;20045;-83
2023/11/02 03:58:31;;;;;;;1.75;1.08;;;;;;;11.57;47.68;98192.94;5022265;28;20420;-83
2023/11/02 04:01:09;;;;;;;3.33;1.10;;;;;;;11.54;47.62;98190.63;5022382;28;20150;-83
2023/11/02 04:03:44;;;;;;;4.03;1.30;;;;;;;11.55;47.56;98200.53;5028931;28;20044;-83
2023/11/02 04:06:19;;;;;;;3.25;1.10;;;;;;;11.56;47.54;98199.47;5023654;28;20072;-83
2023/11/02 04:08:52;;;;;;;1.83;0.88;;;;;;;11.58;47.55;98202.84;5030974;28;20678;-83
2023/11/02 04:11:28;;;;;;;2.35;1.10;;;;;;;11.54;47.60;98177.78;5043199;28;20282;-84
2023/11/02 04:14:11;;;;;;;1.90;0.82;;;;;;;11.56;47.24;98164.69;5025567;28;20072;-84
2023/11/02 04:16:39;;;;;;;;;;;;;;;11.25;47.60;98156.16;5026431;28;20238;-84
2023/11/02 04:19:08;;;;;;;1.73;0.90;;;;;;;11.48;47.65;98153.06;5024662;28;19928;-83
2023/11/02 04:21:37;;;;;;;2.65;1.02;;;;;;;11.52;47.29;98133.31;5034055;28;20053;-84
2023/11/02 04:24:07;;;;;;;2.72;1.10;;;;;;;11.53;47.54;98128.69;5024921;28;20041;-84
2023/11/02 04:26:35;;;;;;;2.38;0.90;;;;;;;11.51;47.45;98101.50;5024353;28;20048;-84
2023/11/02 04:29:03;;;;;;;1.63;1.10;;;;;;;11.51;47.32;98051.34;5023160;28;20045;-84
2023/11/02 04:31:32;;;;;;;1.73;0.90;;;;;;;11.56;47.44;98044.16;5024201;28;20439;-84
2023/11/02 04:34:00;;;;;;;1.92;0.88;;;;;;;11.56;47.56;98025.00;5023235;28;20357;-83
2023/11/02 04:36:28;;;;;;;2.70;0.90;;;;;;;11.56;47.31;97988.56;5028939;28;20095;-83
2023/11/02 04:38:56;;;;;;;3.60;0.95;;;;;;;11.56;47.05;97978.44;5023272;28;20041;-83
2023/11/02 04:41:25;;;;;;;2.13;0.95;;;;;;;11.56;46.82;97929.13;5023419;28;20711;-83
2023/11/02 04:43:54;;;;;;;2.70;1.08;;;;;;;11.51;47.10;97796.63;5029587;28;20052;-83
2023/11/02 04:46:22;;;;;;;2.25;1.20;;;;;;;11.47;46.76;97774.31;5043469;28;20064;-84
2023/11/02 04:48:50;;;;;;;2.80;0.93;;;;;;;11.50;47.06;97820.44;5026902;28;20056;-84
2023/11/02 04:51:18;;;;;;;2.60;0.85;;;;;;;11.49;46.98;97826.97;5027856;28;20057;-85
2023/11/02 04:53:46;;;;;;;3.55;0.98;;;;;;;11.48;46.97;97794.31;5025594;28;20049;-83
2023/11/02 04:56:18;;;;;;;2.22;0.90;;;;;;;11.51;46.48;97769.25;5022646;28;20045;-84
2023/11/02 04:58:47;;;;;;;1.90;0.80;;;;;;;11.48;46.95;97767.78;5022712;28;20048;-84
2023/11/02 05:01:15;;;;;;;1.90;0.70;;;;;;;11.49;47.11;97856.25;5024084;28;21316;-84
2023/11/02 05:03:43;;;;;;;2.60;1.00;;;;;;;11.46;46.58;97802.78;5033029;28;20126;-84
2023/11/02 05:06:11;;;;;;;2.63;1.33;;;;;;;11.48;46.77;97803.38;5032167;28;20060;-84
2023/11/02 05:08:40;;;;;;;2.78;1.00;;;;;;;11.46;46.77;97785.50;5027733;28;20127;-84
2023/11/02 05:11:07;;;;;;;3.33;0.88;;;;;;;11.48;46.39;97786.09;5044277;28;20045;-83
2023/11/02 05:13:35;;;;;;;3.05;0.90;;;;;;;11.46;46.85;97783.59;5044559;28;20697;-83
2023/11/02 05:16:06;;;;;;;4.68;1.10;;;;;;;11.50;46.69;97731.97;5042269;28;20364;-83
2023/11/02 05:18:33;;;;;;;2.08;0.90;;;;;;;11.49;46.55;97697.41;5025132;28;20045;-84
2023/11/02 05:21:02;;;;;;;1.42;0.80;;;;;;;11.49;46.88;97708.38;5016296;28;20053;-83
2023/11/02 05:23:30;;;;;;;2.60;1.00;;;;;;;11.49;46.83;97713.84;5025149;28;20049;-83
2023/11/02 05:25:58;;;;;;;3.20;0.80;;;;;;;11.47;46.79;97741.44;5025140;28;20083;-83
2023/11/02 05:28:26;;;;;;;1.70;0.80;;;;;;;11.48;46.46;97751.34;5030826;28;20552;-83
2023/11/02 05:30:54;;;;;;;2.05;0.95;;;;;;;11.47;46.31;97746.91;5024847;28;20044;-83
2023/11/02 05:33:24;;;;;;;1.73;0.70;;;;;;;11.49;46.52;97714.69;5026375;28;20052;-83
2023/11/02 05:35:52;;;;;;;3.05;0.82;;;;;;;11.48;46.64;97704.78;5025418;28;20044;-84
2023/11/02 05:38:20;;;;;;;4.72;1.05;;;;;;;11.46;46.10;97654.06;5035765;28;20515;-84
2023/11/02 05:40:48;;;;;;;1.77;0.90;;;;;;;11.49;46.28;97689.19;5023616;28;20331;-84
2023/11/02 05:43:16;;;;;;;2.28;0.90;;;;;;;11.48;46.99;97715.75;5024567;28;20080;-84
2023/11/02 05:45:44;;;;;;;4.65;1.00;;;;;;;11.48;46.75;97665.59;5024271;28;20516;-85
2023/11/02 05:48:12;;;;;;;1.45;0.80;;;;;;;11.46;46.91;97629.41;5026773;28;20130;-84
2023/11/02 05:50:41;;;;;;;2.03;0.80;;;;;;;11.50;46.65;97671.72;5024866;28;20459;-85
2023/11/02 05:53:09;;;;;;;2.65;0.95;;;;;;;11.44;46.99;97634.25;5022227;28;20098;-84
2023/11/02 05:55:37;;;;;;;2.20;0.73;;;;;;;11.47;46.80;97672.16;5024170;28;20055;-83
2023/11/02 05:58:05;;;;;;;2.00;0.65;;;;;;;11.46;46.45;97629.41;5024806;28;20060;-85
2023/11/02 06:00:33;;;;;;;1.88;0.70;;;;;;;11.44;46.87;97626.88;5023801;28;20063;-85
2023/11/02 06:03:01;;;;;;;1.55;0.75;;;;;;;11.48;46.50;97673.81;5027566;28;20052;-84
2023/11/02 06:05:30;;;;;;;1.88;0.75;;;;;;;11.47;46.78;97716.78;5041211;28;20132;-82
2023/11/02 06:07:59;;;;;;;2.80;0.90;;;;;;;11.50;46.50;97699.09;5025391;28;20049;-83
2023/11/02 06:10:27;;;;;;;1.50;0.68;;;;;;;11.48;47.07;97717.63;5026564;28;20045;-84
2023/11/02 06:12:55;;;;;;;1.33;0.63;;;;;;;11.51;46.72;97733.66;5029767;28;20086;-83
2023/11/02 06:15:24;;;;;;;2.40;0.80;;;;;;;11.52;47.22;97747.13;5025454;28;20187;-83
2023/11/02 06:17:52;;;;;;;3.47;0.80;;;;;;;11.53;46.94;97723.31;5026322;28;20045;-84
2023/11/02 06:20:20;;;;;;;1.52;0.68;;;;;;;11.53;46.70;97699.53;5028197;28;20048;-83
2023/11/02 06:22:48;;;;;;;1.98;0.90;;;;;;;11.54;46.69;97708.56;5045998;28;20057;-84
2023/11/02 06:25:18;;;;;;;1.15;0.60;;;;;;;11.58;46.70;97712.53;5024833;28;20119;-84
2023/11/02 06:27:46;;;;;;;1.70;0.60;;;;;;;11.58;46.77;97701.59;5028663;28;20052;-84
2023/11/02 06:30:15;;;;;;;1.95;0.98;;;;;;;11.56;47.12;97736.56;5028406;28;20058;-83
2023/11/02 06:32:43;;;;;;;1.42;0.70;;;;;;;11.58;46.90;97727.09;5046464;28;20056;-84
2023/11/02 06:35:11;;;;;;;3.22;0.90;;;;;;;11.61;46.90;97725.84;5030827;28;20037;-85
2023/11/02 06:37:56;;;;;;;0.88;0.60;;;;;;;11.63;46.88;97727.31;5027355;28;20412;-84
2023/11/02 06:40:26;;;;;;;1.83;0.70;;;;;;;11.63;46.92;97762.09;5026645;28;20045;-85
2023/11/02 06:42:57;;;;;;;3.08;0.90;;;;;;;11.63;47.28;97779.38;5044308;28;20640;-85
2023/11/02 06:45:26;;;;;;;1.90;0.60;;;;;;;11.64;47.07;97753.63;5047481;28;20055;-85
2023/11/02 06:47:54;;;;;;;1.85;1.15;;;;;;;11.67;46.86;97755.09;5044170;28;20059;-84
2023/11/02 06:50:22;;;;;;;2.13;0.80;;;;;;;11.67;46.76;97752.38;5046879;28;20037;-83
2023/11/02 06:52:50;;;;;;;2.50;0.70;;;;;;;11.68;47.40;97757.63;5045691;28;20048;-84
2023/11/02 06:55:18;;;;;;;1.98;0.88;;;;;;;11.70;47.18;97750.06;5027104;28;20596;-84
2023/11/02 06:57:47;;;;;;;1.90;0.80;;;;;;;11.71;46.88;97751.72;5025041;28;20239;-82
2023/11/02 07:00:15;;;;;;;0.90;0.50;;;;;;;11.71;47.09;97749.00;5026108;28;20049;-83
2023/11/02 07:02:44;;;;;;;3.15;1.00;;;;;;;11.72;47.35;97736.94;5045520;28;20719;-83
2023/11/02 07:05:12;;;;;;;1.77;0.70;;;;;;;11.70;47.30;97702.63;5026965;28;20060;-83
2023/11/02 07:07:40;;;;;;;1.90;0.70;;;;;;;11.72;47.61;97723.25;5025865;28;20116;-83
2023/11/02 07:10:13;;;;;;;1.67;0.77;;;;;;;11.72;47.28;97705.97;5024532;28;20357;-83
2023/11/02 07:12:42;;;;;;;1.60;0.80;;;;;;;11.71;47.88;97712.53;5029820;28;20057;-84
2023/11/02 07:19:30;;;;;;;3.00;0.90;;;;;;;11.65;48.57;97705.16;4993524;28;20056;-88
2023/11/02 07:22:02;;;;;;;2.45;0.60;;;;;;;11.63;48.13;97691.72;5025400;28;20447;-86
2023/11/02 07:24:30;;;;;;;1.33;0.73;;;;;;;11.62;48.39;97676.34;5032486;28;20052;-87
2023/11/02 07:26:58;;;;;;;1.52;0.70;;;;;;;11.60;48.52;97672.94;5032823;28;20037;-86
2023/11/02 07:29:26;;;;;;;3.92;1.67;;;;;;;11.60;48.12;97666.63;5032132;28;20048;-87
2023/11/02 07:31:55;;;;;;;1.50;0.60;;;;;;;11.56;48.46;97671.69;5031967;28;20041;-87
2023/11/02 07:34:30;;;;;;;2.90;0.80;;;;;;;11.56;48.66;97659.88;4974535;28;20038;-86
2023/11/02 07:37:05;;;;;;;2.92;0.65;;;;;;;11.52;48.71;97664.97;5028091;28;20548;-85
2023/11/02 07:47:46;;;;;;;2.25;0.70;;;;;;;11.36;49.05;97627.97;5013215;28;21233;-86
2023/11/02 07:50:18;;;;;;;2.80;0.80;;;;;;;11.39;49.37;97628.59;5041397;28;20547;-86
2023/11/02 07:52:48;;;;;;;1.48;0.70;;;;;;;11.40;49.41;97643.94;5025588;28;20519;-86
2023/11/02 07:55:16;;;;;;;1.48;0.75;;;;;;;11.38;49.18;97625.03;5051283;28;20501;-85
2023/11/02 07:57:47;;;;;;;2.15;0.70;;;;;;;11.38;49.22;97622.28;5029999;28;20049;-87
2023/11/02 08:00:17;;;;;;;1.80;0.60;;;;;;;11.39;49.40;97618.47;5024015;28;20072;-87
2023/11/02 08:02:45;;;;;;;0.70;0.45;;;;;;;11.38;49.73;97626.94;5025909;28;20065;-87
2023/11/02 08:05:13;;;;;;;1.25;0.60;;;;;;;11.37;49.69;97623.34;5023183;28;20055;-84
2023/11/02 08:07:41;;;;;;;2.53;0.60;;;;;;;11.35;49.88;97611.75;5027485;28;21278;-84
2023/11/02 08:10:11;;;;;;;1.35;0.60;;;;;;;11.39;50.00;97621.19;5029441;28;20417;-83
2023/11/02 08:12:39;;;;;;;1.20;0.60;;;;;;;11.39;49.69;97614.91;5032035;28;20044;-83
2023/11/02 08:15:07;;;;;;;1.58;0.70;;;;;;;11.38;49.72;97625.03;5030950;28;20124;-84
2023/11/02 08:17:35;;;;;;;1.40;0.63;;;;;;;11.38;50.01;97605.88;5044402;28;20052;-83
2023/11/02 08:20:09;;;;;;;0.80;0.63;;;;;;;11.40;50.13;97592.78;5025646;28;20701;-83
2023/11/02 08:22:38;;;;;;;2.33;0.68;;;;;;;11.39;50.06;97584.78;5027581;28;20406;-84
2023/11/02 08:25:08;;;;;;;1.33;0.60;;;;;;;11.41;49.78;97585.41;5028499;28;20656;-83
2023/11/02 08:27:38;;;;;;;1.00;0.60;;;;;;;11.41;49.78;97585.41;5039551;28;20065;-83
2023/11/02 08:30:07;;;;;;;0.85;0.65;;;;;;;11.41;50.07;97578.03;5043177;28;20065;-82
2023/11/02 08:32:35;;;;;;;2.03;0.70;;;;;;;11.42;50.01;97581.59;5028813;28;20139;-83
2023/11/02 08:35:03;;;;;;;0.93;0.60;;;;;;;11.43;50.31;97581.38;5027638;28;20045;-85
2023/11/02 08:37:31;;;;;;;1.08;0.65;;;;;;;11.40;50.35;97565.38;5026886;28;20055;-84
2023/11/02 08:39:59;;;;;;;3.80;1.13;;;;;;;11.40;49.92;97570.88;5026375;28;20443;-85
2023/11/02 08:42:28;;;;;;;1.30;0.75;;;;;;;11.41;50.40;97568.97;5029456;28;20064;-84
2023/11/02 08:44:59;;;;;;;2.10;0.75;;;;;;;11.45;50.09;97581.19;5031073;28;20053;-84
2023/11/02 08:47:27;;;;;;;1.27;0.60;;;;;;;11.43;50.02;97555.91;5053132;28;20072;-84
2023/11/02 08:49:55;;;;;;;0.70;0.50;;;;;;;11.43;50.24;97536.75;5031209;28;20048;-84
2023/11/02 08:52:23;;;;;;;1.08;0.60;;;;;;;11.41;50.20;97525.16;5038952;28;20148;-84
2023/11/02 08:54:53;;;;;;;1.73;0.75;;;;;;;11.40;50.42;97516.09;5037067;28;20927;-85
2023/11/02 08:57:22;;;;;;;0.88;0.63;;;;;;;11.42;49.89;97502.19;5040758;28;20045;-84
2023/11/02 08:59:51;;;;;;;1.50;0.60;;;;;;;11.41;50.05;97465.75;5038294;28;20725;-83
2023/11/02 09:02:24;;;;;;;0.93;0.50;;;;;;;11.43;50.06;97501.97;5037384;28;20029;-85
2023/11/02 09:04:52;;;;;;;2.60;0.70;;;;;;;11.43;50.00;97469.13;5032644;28;20056;-84
2023/11/02 09:07:21;;;;;;;1.88;0.60;;;;;;;11.43;50.32;97490.19;5032112;28;20059;-84
2023/11/02 09:09:49;;;;;;;1.70;0.80;;;;;;;11.46;50.11;97501.56;5030836;28;20056;-84
2023/11/02 09:12:18;;;;;;;0.85;0.52;;;;;;;11.47;50.51;97511.41;5050069;28;20032;-85
2023/11/02 09:14:46;;;;;;;1.70;0.55;;;;;;;11.48;50.21;97512.25;5048252;28;20068;-84
2023/11/02 09:17:14;;;;;;;1.30;0.65;;;;;;;11.50;50.34;97516.47;5029826;28;20049;-84
2023/11/02 09:19:43;;;;;;;1.65;0.80;;;;;;;11.50;50.29;97497.28;5033956;28;20044;-84
2023/11/02 09:22:11;;;;;;;2.22;0.80;;;;;;;11.53;50.16;97506.97;5035042;28;20064;-84
2023/11/02 09:24:41;;;;;;;1.80;0.65;;;;;;;11.53;50.19;97494.13;5036815;28;20049;-83
2023/11/02 09:27:09;;;;;;;2.17;1.00;;;;;;;11.56;50.49;97493.66;5038548;28;20144;-83
2023/11/02 09:29:39;;;;;;;1.90;0.90;;;;;;;11.60;50.43;97483.09;5027092;28;20053;-84
2023/11/02 09:32:07;;;;;;;2.17;0.90;;;;;;;11.58;50.29;97477.00;5028630;28;20060;-84
2023/11/02 09:34:38;;;;;;;1.25;0.73;;;;;;;11.59;50.70;97481.44;5032511;28;20049;-84
2023/11/02 09:37:08;;;;;;;1.48;0.70;;;;;;;11.64;50.42;97471.50;5029307;28;20072;-83
2023/11/02 09:39:36;;;;;;;1.15;0.50;;;;;;;11.66;50.46;97483.09;5036259;28;20495;-83
2023/11/02 09:42:14;;;;;;;1.42;0.60;;;;;;;11.71;50.98;97466.84;5029343;28;20063;-84
2023/11/02 09:44:42;;;;;;;1.02;0.50;;;;;;;11.71;50.46;97493.38;5031309;28;20103;-85
2023/11/02 09:47:10;;;;;;;1.98;0.80;;;;;;;11.73;50.86;97453.72;5040109;28;20045;-84
2023/11/02 09:49:39;;;;;;;3.78;0.80;;;;;;;11.77;50.88;97478.78;5038610;28;20117;-84
2023/11/02 09:52:08;;;;;;;1.23;0.50;;;;;;;11.81;50.74;97460.81;5039653;28;20075;-84
2023/11/02 09:54:38;;;;;;;2.63;0.75;;;;;;;11.81;50.85;97466.31;5031790;28;20644;-84
2023/11/02 09:57:15;;;;;;;1.35;0.60;;;;;;;11.81;50.94;97468.19;5035007;28;20049;-84
2023/11/02 09:59:46;;;;;;;2.53;0.70;;;;;;;11.85;50.85;97491.34;5034948;28;20657;-85
2023/11/02 10:02:14;;;;;;;2.08;0.70;;;;;;;11.88;50.51;97491.75;5053685;28;20056;-83
2023/11/02 10:04:43;;;;;;;2.05;0.85;;;;;;;11.90;50.87;97483.28;5047186;28;20055;-83
2023/11/02 10:07:13;;;;;;;1.63;0.70;;;;;;;11.92;50.92;97473.78;5047282;28;20047;-85
2023/11/02 10:09:42;;;;;;;1.95;0.82;;;;;;;11.92;50.83;97470.22;5033554;28;20066;-84
2023/11/02 10:12:12;;;;;;;2.70;0.80;;;;;;;11.94;50.43;97460.72;5047688;28;20048;-84
2023/11/02 10:14:40;;;;;;;1.80;0.80;;;;;;;11.96;50.91;97465.97;5044605;28;20072;-85
2023/11/02 10:17:09;;;;;;;2.45;0.70;;;;;;;12.01;50.78;97483.41;5036214;28;20045;-85
2023/11/02 10:19:38;;;;;;;1.70;0.80;;;;;;;12.04;50.44;97491.19;5035240;28;20067;-85
2023/11/02 10:22:07;;;;;;;3.97;1.02;;;;;;;12.04;50.74;97482.13;5043357;28;20679;-85
2023/11/02 10:24:37;;;;;;;2.83;1.20;;;;;;;12.10;50.80;97487.53;5045640;28;20362;-84
2023/11/02 10:27:06;;;;;;;2.33;0.80;;;;;;;12.13;50.58;97463.50;5037679;28;20049;-84
2023/11/02 10:29:35;;;;;;;2.30;0.70;;;;;;;12.13;50.38;97461.56;5037670;28;20079;-85
2023/11/02 10:32:05;;;;;;;2.03;0.75;;;;;;;12.16;50.16;97447.41;5038022;28;20084;-84
2023/11/02 10:34:33;;;;;;;1.95;0.70;;;;;;;12.21;50.14;97449.47;5038218;28;20063;-85
2023/11/02 10:37:08;;;;;;;0.80;0.57;;;;;;;12.23;50.55;97466.53;5045127;28;20116;-85
2023/11/02 10:39:38;;;;;;;1.58;0.70;;;;;;;12.26;50.22;97447.72;5041667;28;20049;-84
2023/11/02 10:42:06;;;;;;;1.85;0.63;;;;;;;12.31;49.52;97464.31;5037984;28;20091;-83
2023/11/02 10:44:36;;;;;;;3.53;0.60;;;;;;;12.37;49.59;97452.47;5037273;28;20049;-85
2023/11/02 10:47:05;;;;;;;1.83;0.60;;;;;;;12.41;49.38;97453.66;5039307;28;20077;-85
2023/11/02 10:49:35;;;;;;;2.92;0.63;;;;;;;12.45;49.26;97448.56;5028819;28;20149;-85
2023/11/02 10:52:07;;;;;;;3.05;0.60;;;;;;;12.50;48.84;97419.38;5026543;28;20053;-84
2023/11/02 10:54:43;;;;;;;2.58;1.10;;;;;;;12.54;48.79;97402.47;5026702;28;20060;-84
2023/11/02 10:57:17;;;;;;;3.00;0.80;;;;;;;12.60;47.83;97423.47;5027427;28;20049;-85
2023/11/02 10:59:47;;;;;;;2.28;0.90;;;;;;;12.62;48.84;97413.16;5026892;28;20049;-84
2023/11/02 11:02:17;;;;;;;3.15;0.90;;;;;;;12.68;48.67;97406.75;5027946;28;20076;-85
2023/11/02 11:04:47;;;;;;;2.20;0.77;;;;;;;12.70;48.15;97399.97;5028188;28;20053;-85
2023/11/02 11:07:15;;;;;;;3.78;0.70;;;;;;;12.75;48.21;97382.78;5028355;28;20112;-84
2023/11/02 11:09:48;;;;;;;3.30;0.60;;;;;;;12.82;47.62;97397.25;5044982;28;20044;-85
2023/11/02 11:12:17;;;;;;;2.45;0.70;;;;;;;12.83;47.82;97386.03;5031163;28;20051;-85
2023/11/02 11:14:46;;;;;;;2.13;0.70;;;;;;;12.90;47.99;97372.22;5030772;28;20710;-85
2023/11/02 11:17:15;;;;;;;3.63;0.73;;;;;;;12.95;47.57;97385.25;5028357;28;20072;-86
2023/11/02 11:19:44;;;;;;;2.88;0.90;;;;;;;12.98;47.14;97377.38;5036665;28;20049;-86
2023/11/02 11:22:16;;;;;;;3.47;0.80;;;;;;;13.05;46.85;97366.28;5033104;28;20056;-85
2023/11/02 11:24:54;;;;;;;2.65;1.00;;;;;;;13.10;45.67;97366.44;5028951;28;20105;-84
2023/11/02 11:27:31;;;;;;;3.10;0.80;;;;;;;13.14;45.60;97404.16;5031981;28;20099;-85
2023/11/02 11:29:59;;;;;;;2.88;0.60;;;;;;;13.16;46.60;97376.47;5032065;28;20430;-84
2023/11/02 11:32:37;;;;;;;1.38;0.77;;;;;;;13.23;44.98;97383.53;5028613;28;20467;-85
2023/11/02 11:35:21;;;;;;;2.45;0.95;;;;;;;13.30;46.08;97394.41;5032304;27;20408;-74
2023/11/02 11:37:56;;;;;;;2.60;0.70;;;;;;;13.36;46.39;97370.66;5024753;28;20045;-74
2023/11/02 11:40:40;;;;;;;2.30;1.10;;;;;;;13.44;44.06;97389.53;5022200;28;20135;-74
2023/11/02 11:43:15;;;;;;;3.30;0.85;;;;;;;13.47;45.85;97376.16;5023573;28;20061;-74
2023/11/02 11:45:51;;;;;;;1.55;0.80;;;;;;;13.57;43.72;97389.34;5024021;28;20081;-73
2023/11/02 11:48:36;;;;;;;4.32;0.90;;;;;;;13.64;43.99;97373.56;5023100;28;20049;-73
2023/11/02 11:51:39;;;;;;;5.68;1.15;;;;;;;13.71;43.63;97396.25;5020948;28;20072;-73
2023/11/02 11:54:09;;;;;;;1.83;0.60;;;;;;;13.74;44.96;97395.81;5023764;28;20053;-73
2023/11/02 11:56:39;;;;;;;3.60;0.85;;;;;;;13.84;44.58;97387.81;5022231;28;20885;-73
2023/11/02 11:59:07;;;;;;;3.25;0.85;;;;;;;13.91;44.53;97394.00;5055267;28;20709;-73
2023/11/02 12:01:35;;;;;;;2.83;0.70;;;;;;;13.98;44.44;97468.09;5053999;28;20251;-73
2023/11/02 12:04:04;;;;;;;2.33;1.00;;;;;;;14.03;43.76;97393.97;5021031;28;20124;-74
2023/11/02 12:06:43;;;;;;;4.63;0.93;;;;;;;14.13;42.21;97399.72;5021148;28;20304;-73
2023/11/02 12:09:13;;;;;;;2.75;0.93;;;;;;;14.18;43.67;97388.00;5019953;28;20633;-73
2023/11/02 12:11:42;;;;;;;2.65;0.80;;;;;;;14.23;43.32;97382.59;5024864;28;20660;-73